»·PEaware :: N6025 KRNM-KSNA

N6025 :: KRNM-KSNA

FLIGHT INFORMATION

Flight Status: Arrived
Operator: Privately registered:
United States
More flights under this callsign
Pilot: Christian U. (16550)
Aircraft: PIPER PA-28 CHEROKEE ARCHER
(P28A)
More flights by this aircraft type
Origin: KRNM Ramona
United States
Destination: KSNA John Wayne-Orange Co
United States
More flights between these airports :: More routes between these airports
Route: +OCN V23 SLI
File this flight plan on PilotEdge
Remarks: TEC route SANP3
Altitude:
(Current/Filed)
6,000ft
Speed:
(Current/Filed)
110kts
Departed: 18-Nov-20 09:09 AM
Arrived: 18-Nov-20 10:11 AM
Distance/Time
Traveled:
61nm/1:02
Distance/Time
To Go:
Arrived

Flight Plot

Page will automatically refresh every two minutes.


Map Options




Map Legend


Flown Route
Filed Route
Departure Airport
Arrival Airport
Navaid (VOR, NDB)
Fix

Horizontal Profiles

Position Reports

Time Latitude Longitude Heading Altitude Ground
Speed
18-Nov-20 08:54 33.040191 -116.910671 196 1391ft 0kts
18-Nov-20 08:55 33.040191 -116.910671 196 1391ft 0kts
18-Nov-20 08:56 33.040191 -116.910671 196 1391ft 0kts
18-Nov-20 08:57 33.040191 -116.910671 196 1391ft 0kts
18-Nov-20 08:58 33.040191 -116.910671 196 1391ft 0kts
18-Nov-20 08:59 33.040191 -116.910671 196 1391ft 0kts
18-Nov-20 09:00 33.040191 -116.910671 196 1391ft 0kts
18-Nov-20 09:01 33.040191 -116.910671 196 1391ft 0kts
18-Nov-20 09:02 33.040191 -116.910671 196 1391ft 0kts
18-Nov-20 09:03 33.040191 -116.910671 196 1391ft 0kts
18-Nov-20 09:04 33.040191 -116.910671 196 1391ft 0kts
18-Nov-20 09:05 33.040132 -116.910692 196 1391ft 5kts
18-Nov-20 09:06 33.038689 -116.907579 130 1386ft 12kts
18-Nov-20 09:07 33.038430 -116.907475 185 1386ft 0kts
18-Nov-20 09:08 33.038935 -116.914033 276 1497ft 64kts
18-Nov-20 09:09 33.042926 -116.937364 281 2212ft 72kts
18-Nov-20 09:10 33.048732 -116.958278 303 2989ft 61kts
18-Nov-20 09:11 33.058173 -116.976293 303 3606ft 73kts
18-Nov-20 09:12 33.070002 -117.000075 298 4187ft 88kts
18-Nov-20 09:13 33.080381 -117.025112 297 4885ft 81kts
18-Nov-20 09:14 33.089984 -117.048431 296 5586ft 75kts
18-Nov-20 09:15 33.099473 -117.071612 296 5984ft 91kts
18-Nov-20 09:16 33.110910 -117.099491 296 5974ft 93kts
18-Nov-20 09:17 33.122313 -117.127316 296 5974ft 93kts
18-Nov-20 09:18 33.133652 -117.155009 296 5974ft 93kts
18-Nov-20 09:19 33.145027 -117.182805 296 5975ft 93kts
18-Nov-20 09:20 33.156358 -117.210513 296 5975ft 92kts
18-Nov-20 09:21 33.167703 -117.238280 296 5975ft 92kts
18-Nov-20 09:22 33.178995 -117.265938 296 5976ft 92kts
18-Nov-20 09:23 33.190315 -117.293686 297 5977ft 92kts
18-Nov-20 09:24 33.201601 -117.321373 297 5978ft 92kts
18-Nov-20 09:25 33.212861 -117.349019 298 5979ft 92kts
18-Nov-20 09:26 33.224147 -117.376744 298 5980ft 92kts
18-Nov-20 09:27 33.235404 -117.404421 299 5980ft 92kts
18-Nov-20 09:28 33.250716 -117.428464 314 5981ft 91kts
18-Nov-20 09:29 33.268633 -117.449850 316 5982ft 91kts
18-Nov-20 09:30 33.286722 -117.471048 316 5983ft 91kts
18-Nov-20 09:31 33.305440 -117.491278 331 5981ft 91kts
18-Nov-20 09:32 33.328379 -117.504107 332 5983ft 91kts
18-Nov-20 09:33 33.351442 -117.516815 332 5982ft 91kts
18-Nov-20 09:34 33.374489 -117.529532 332 5973ft 91kts
18-Nov-20 09:35 33.397437 -117.542191 332 5973ft 91kts
18-Nov-20 09:36 33.420434 -117.554871 332 5973ft 91kts
18-Nov-20 09:37 33.443351 -117.567505 332 5973ft 90kts
18-Nov-20 09:38 33.466350 -117.580222 332 5973ft 90kts
18-Nov-20 09:39 33.489175 -117.592924 332 5972ft 90kts
18-Nov-20 09:40 33.512077 -117.605761 332 5972ft 90kts
18-Nov-20 09:41 33.534789 -117.618590 332 5972ft 90kts
18-Nov-20 09:42 33.557544 -117.631535 333 5971ft 91kts
18-Nov-20 09:43 33.586988 -117.649730 332 5978ft 129kts
18-Nov-20 09:44 33.618983 -117.669457 332 5974ft 129kts
18-Nov-20 09:45 33.651578 -117.688299 332 5974ft 129kts
18-Nov-20 09:46 33.684339 -117.706144 332 5975ft 129kts
18-Nov-20 09:47 33.717170 -117.723256 332 5975ft 128kts
18-Nov-20 09:48 33.750161 -117.739967 332 5975ft 128kts
18-Nov-20 09:49 33.782804 -117.756796 332 5974ft 128kts
18-Nov-20 09:50 33.815139 -117.775838 330 5980ft 126kts
18-Nov-20 09:51 33.838171 -117.789021 332 5941ft 84kts
18-Nov-20 09:52 33.859868 -117.800605 332 5434ft 86kts
18-Nov-20 09:53 33.881858 -117.812381 332 4922ft 83kts
18-Nov-20 09:54 33.895665 -117.797622 89 4393ft 102kts
18-Nov-20 09:55 33.892880 -117.763440 90 4009ft 100kts
18-Nov-20 09:56 33.890952 -117.728672 90 4012ft 105kts
18-Nov-20 09:57 33.891130 -117.693626 90 4016ft 104kts
18-Nov-20 09:58 33.897592 -117.661464 18 4020ft 101kts
18-Nov-20 09:59 33.907092 -117.680544 238 3596ft 95kts
18-Nov-20 10:00 33.891864 -117.706511 236 3099ft 95kts
18-Nov-20 10:01 33.878062 -117.731355 255 3016ft 87kts
18-Nov-20 10:02 33.860512 -117.753146 219 3017ft 99kts
18-Nov-20 10:03 33.835263 -117.767482 207 3017ft 101kts
18-Nov-20 10:04 33.809997 -117.783350 203 2884ft 103kts
18-Nov-20 10:05 33.784843 -117.799314 202 2373ft 104kts
18-Nov-20 10:06 33.758780 -117.815897 203 1804ft 107kts
18-Nov-20 10:07 33.732071 -117.832923 204 1210ft 110kts
18-Nov-20 10:08 33.705837 -117.849621 205 624ft 91kts
18-Nov-20 10:09 33.686602 -117.861996 205 220ft 75kts
18-Nov-20 10:10 33.674183 -117.870655 293 57ft 11kts
18-Nov-20 10:11 33.674238 -117.870846 284 57ft 0kts
18-Nov-20 10:12 33.676685 -117.869683 27 57ft 16kts
18-Nov-20 10:13 33.678291 -117.869437 113 57ft 0kts
18-Nov-20 10:14 33.678291 -117.869437 113 57ft 0kts

Navigation Log

Ident Type
Flight plan parsing failed, navigation log unavailable